Time;durP1;ratioP1;P1;durP2;ratioP2;P2;SDS_P1;SDS_P2;PMS_P1;PMS_P2;Temp;Humidity;BMP_temperature;BMP_pressure;BME280_temperature;BME280_humidity;BME280_pressure;Samples;Min_cycle;Max_cycle;Signal;HPM_P1;HPM_P2
2022/12/12 00:00:04;;;;;;;39.58;17.08;;;;;;;;;;6246044;23;20466;-63
2022/12/12 00:02:30;;;;;;;38.28;16.73;;;;;;;;;;6246185;23;20058;-63
2022/12/12 00:04:56;;;;;;;41.92;19.30;;;;;;;;;;6245980;23;20000;-63
2022/12/12 00:07:23;;;;;;;42.58;18.15;;;;;;;;;;6245591;23;20503;-63
2022/12/12 00:09:49;;;;;;;39.95;15.82;;;;;;;;;;6245529;23;20004;-63
2022/12/12 00:12:15;;;;;;;42.05;17.63;;;;;;;;;;6245612;23;20008;-63
2022/12/12 00:14:41;;;;;;;37.90;17.83;;;;;;;;;;6245719;23;20019;-63
2022/12/12 00:17:07;;;;;;;43.83;18.02;;;;;;;;;;6245754;23;20008;-63
2022/12/12 00:19:33;;;;;;;40.60;18.40;;;;;;;;;;6245684;23;19996;-63
2022/12/12 00:21:59;;;;;;;50.28;20.13;;;;;;;;;;6246030;23;20001;-63
2022/12/12 00:24:25;;;;;;;38.97;20.10;;;;;;;;;;6246097;23;20039;-63
2022/12/12 00:26:51;;;;;;;38.55;18.70;;;;;;;;;;6245156;23;20087;-63
2022/12/12 00:29:18;;;;;;;52.78;22.75;;;;;;;;;;6244138;23;20015;-63
2022/12/12 00:31:45;;;;;;;82.95;32.75;;;;;;;;;;6245459;23;20048;-63
2022/12/12 00:34:11;;;;;;;93.30;35.38;;;;;;;;;;6245673;23;20032;-63
2022/12/12 00:36:37;;;;;;;100.30;39.97;;;;;;;;;;6245386;22;20084;-63
2022/12/12 00:39:03;;;;;;;67.13;25.38;;;;;;;;;;6245596;23;20081;-63
2022/12/12 00:41:29;;;;;;;52.13;20.70;;;;;;;;;;6244135;23;20000;-63
2022/12/12 00:43:55;;;;;;;71.30;29.05;;;;;;;;;;6245402;23;20446;-63
2022/12/12 00:46:23;;;;;;;72.90;30.95;;;;;;;;;;6245710;23;20004;-63
2022/12/12 00:48:49;;;;;;;58.50;26.98;;;;;;;;;;6245414;23;20032;-63
2022/12/12 00:51:19;;;;;;;68.60;29.05;;;;;;;;;;6245788;23;20009;-63
2022/12/12 00:53:46;;;;;;;55.38;24.90;;;;;;;;;;6245455;23;20035;-63
2022/12/12 00:56:14;;;;;;;48.85;24.05;;;;;;;;;;6245416;23;20007;-63
2022/12/12 00:58:40;;;;;;;49.95;22.75;;;;;;;;;;6245607;23;20446;-63
2022/12/12 01:01:12;;;;;;;45.45;21.92;;;;;;;;;;6245529;23;20006;-63
2022/12/12 01:03:39;;;;;;;47.50;22.10;;;;;;;;;;6245532;23;20011;-63
2022/12/12 01:06:06;;;;;;;52.97;22.55;;;;;;;;;;6245328;23;20439;-63
2022/12/12 01:08:32;;;;;;;50.15;21.88;;;;;;;;;;6245452;23;20324;-63
2022/12/12 01:10:58;;;;;;;43.85;20.95;;;;;;;;;;6245350;23;20427;-63
2022/12/12 01:13:25;;;;;;;43.83;20.40;;;;;;;;;;6243677;23;20020;-63
2022/12/12 01:15:51;;;;;;;42.42;20.92;;;;;;;;;;6245219;23;20438;-63
2022/12/12 01:18:17;;;;;;;33.97;17.63;;;;;;;;;;6245215;23;20516;-63
2022/12/12 01:20:44;;;;;;;34.47;17.95;;;;;;;;;;6245345;23;20462;-63
2022/12/12 01:23:10;;;;;;;33.10;17.27;;;;;;;;;;6245226;23;20015;-63
2022/12/12 01:25:36;;;;;;;36.85;20.13;;;;;;;;;;6245009;23;20083;-63
2022/12/12 01:28:02;;;;;;;37.08;17.77;;;;;;;;;;6245440;23;20008;-63
2022/12/12 01:30:29;;;;;;;32.95;16.50;;;;;;;;;;6245647;23;20098;-63
2022/12/12 01:32:55;;;;;;;32.70;16.83;;;;;;;;;;6243508;23;20014;-63
2022/12/12 01:35:22;;;;;;;29.50;14.95;;;;;;;;;;6245040;23;20027;-63
2022/12/12 01:37:48;;;;;;;34.13;16.08;;;;;;;;;;6244769;23;20000;-63
2022/12/12 01:40:23;;;;;;;34.08;16.70;;;;;;;;;;6245303;23;20024;-63
2022/12/12 01:42:49;;;;;;;33.38;15.52;;;;;;;;;;6245062;23;20001;-63
2022/12/12 01:45:34;;;;;;;30.30;16.08;;;;;;;;;;6243770;23;20338;-63
2022/12/12 01:48:00;;;;;;;30.80;15.18;;;;;;;;;;6245037;23;20004;-63
2022/12/12 01:50:26;;;;;;;28.10;14.77;;;;;;;;;;6245133;23;20004;-63
2022/12/12 01:52:52;;;;;;;27.17;15.20;;;;;;;;;;6244707;23;20031;-63
2022/12/12 01:55:21;;;;;;;31.17;15.18;;;;;;;;;;6245076;23;20371;-63
2022/12/12 01:57:48;;;;;;;22.83;14.07;;;;;;;;;;6245063;23;20005;-63
2022/12/12 02:00:14;;;;;;;29.25;16.55;;;;;;;;;;6245083;23;20000;-63
2022/12/12 02:02:45;;;;;;;31.70;15.45;;;;;;;;;;6244850;22;20007;-63
2022/12/12 02:05:29;;;;;;;30.60;16.15;;;;;;;;;;6245230;22;20008;-63
2022/12/12 02:07:58;;;;;;;30.63;16.40;;;;;;;;;;6244598;23;20000;-63
2022/12/12 02:10:24;;;;;;;31.25;17.38;;;;;;;;;;6245213;23;20050;-63
2022/12/12 02:12:50;;;;;;;28.33;14.98;;;;;;;;;;6244736;23;20066;-63
2022/12/12 02:15:16;;;;;;;25.80;14.57;;;;;;;;;;6245011;23;20004;-63
2022/12/12 02:17:55;;;;;;;33.30;14.38;;;;;;;;;;6244851;23;20026;-63
2022/12/12 02:20:26;;;;;;;32.50;15.50;;;;;;;;;;6245094;23;20326;-63
2022/12/12 02:23:13;;;;;;;25.83;13.20;;;;;;;;;;6244560;23;20030;-63
2022/12/12 02:25:39;;;;;;;27.95;14.27;;;;;;;;;;6245069;22;20011;-63
2022/12/12 02:28:11;;;;;;;25.33;14.98;;;;;;;;;;6244868;23;20008;-63
2022/12/12 02:30:37;;;;;;;30.33;15.18;;;;;;;;;;6246557;23;20320;-63
2022/12/12 02:33:03;;;;;;;27.30;14.23;;;;;;;;;;6246866;23;20008;-63
2022/12/12 02:35:35;;;;;;;24.63;12.90;;;;;;;;;;6244970;23;20008;-63
2022/12/12 02:38:06;;;;;;;22.52;13.07;;;;;;;;;;6246694;23;20004;-63
2022/12/12 02:40:34;;;;;;;23.20;13.65;;;;;;;;;;6247109;23;20439;-63
2022/12/12 02:43:16;;;;;;;25.27;14.27;;;;;;;;;;6246553;23;20004;-63
2022/12/12 02:45:46;;;;;;;23.85;11.95;;;;;;;;;;6246911;23;20008;-63
2022/12/12 02:48:21;;;;;;;21.58;11.82;;;;;;;;;;6246781;23;20304;-63
2022/12/12 02:50:48;;;;;;;23.98;10.98;;;;;;;;;;6246457;23;20016;-63
2022/12/12 02:53:17;;;;;;;19.60;11.15;;;;;;;;;;6246889;23;20079;-63
2022/12/12 02:55:43;;;;;;;18.17;10.70;;;;;;;;;;6246556;23;20453;-63
2022/12/12 02:58:09;;;;;;;19.70;11.80;;;;;;;;;;6246549;23;20000;-63
2022/12/12 03:00:42;;;;;;;29.02;16.00;;;;;;;;;;6246731;23;20026;-63
2022/12/12 03:09:08;;;;;;;27.52;13.15;;;;;;;;;;6246660;23;20004;-63
2022/12/12 03:11:37;;;;;;;22.58;12.95;;;;;;;;;;6246614;23;20027;-63
2022/12/12 03:14:03;;;;;;;26.77;12.82;;;;;;;;;;6246089;23;20091;-63
2022/12/12 03:16:31;;;;;;;18.52;11.20;;;;;;;;;;6246837;23;20462;-63
2022/12/12 03:19:00;;;;;;;19.30;10.35;;;;;;;;;;6246202;22;20442;-63
2022/12/12 03:21:38;;;;;;;21.42;10.25;;;;;;;;;;6246677;23;20414;-63
2022/12/12 03:24:12;;;;;;;18.75;11.25;;;;;;;;;;6246123;23;20430;-63
2022/12/12 03:27:07;;;;;;;17.98;10.98;;;;;;;;;;6246490;23;20103;-63
2022/12/12 03:29:42;;;;;;;17.60;10.52;;;;;;;;;;6220652;23;20023;-63
2022/12/12 03:32:11;;;;;;;17.33;10.95;;;;;;;;;;6245990;23;20004;-63
2022/12/12 03:34:46;;;;;;;19.60;10.43;;;;;;;;;;6246000;23;20079;-63
2022/12/12 03:37:16;;;;;;;15.98;10.00;;;;;;;;;;6246259;23;20008;-63
2022/12/12 03:39:44;;;;;;;21.88;9.63;;;;;;;;;;6246361;23;20079;-63
2022/12/12 03:42:22;;;;;;;15.98;10.05;;;;;;;;;;6245552;23;20450;-63
2022/12/12 03:44:50;;;;;;;18.48;9.57;;;;;;;;;;6245792;23;20004;-63
2022/12/12 03:47:19;;;;;;;17.38;10.10;;;;;;;;;;6246256;23;20000;-63
2022/12/12 03:49:48;;;;;;;21.00;10.73;;;;;;;;;;6246180;23;20008;-63
2022/12/12 03:52:20;;;;;;;20.55;10.90;;;;;;;;;;6246052;23;20023;-63
2022/12/12 03:54:48;;;;;;;17.63;10.38;;;;;;;;;;6246235;23;20062;-63
2022/12/12 03:57:24;;;;;;;19.92;10.02;;;;;;;;;;6245948;23;20341;-63
2022/12/12 03:59:53;;;;;;;20.70;9.98;;;;;;;;;;6246135;22;20007;-63
2022/12/12 04:02:40;;;;;;;18.42;10.77;;;;;;;;;;6246256;23;20000;-63
2022/12/12 04:05:12;;;;;;;18.60;10.80;;;;;;;;;;6245869;23;20000;-63
2022/12/12 04:07:41;;;;;;;14.87;9.20;;;;;;;;;;6245792;23;20389;-63
2022/12/12 04:13:15;;;;;;;19.48;10.68;;;;;;;;;;6244174;23;20354;-63
2022/12/12 04:16:00;;;;;;;19.45;10.38;;;;;;;;;;6245807;23;20553;-63
2022/12/12 04:18:26;;;;;;;23.52;11.43;;;;;;;;;;6245645;23;20009;-63
2022/12/12 04:23:54;;;;;;;22.75;10.88;;;;;;;;;;6182680;23;20009;-63
2022/12/12 04:26:38;;;;;;;23.88;12.07;;;;;;;;;;6182028;23;20013;-63
2022/12/12 04:29:19;;;;;;;20.92;12.15;;;;;;;;;;6182200;23;20571;-63
2022/12/12 04:31:51;;;;;;;19.73;11.07;;;;;;;;;;6182268;23;20341;-63
2022/12/12 04:34:25;;;;;;;24.13;11.85;;;;;;;;;;6182438;23;20067;-63
2022/12/12 04:36:52;;;;;;;22.73;11.15;;;;;;;;;;6182268;23;20044;-63
2022/12/12 04:39:19;;;;;;;23.17;12.38;;;;;;;;;;6182551;23;20001;-63
2022/12/12 04:41:46;;;;;;;19.10;10.52;;;;;;;;;;6182752;23;20083;-63
2022/12/12 04:44:13;;;;;;;21.27;12.18;;;;;;;;;;6182162;23;20016;-63
2022/12/12 04:46:40;;;;;;;24.17;12.32;;;;;;;;;;6182025;23;20013;-63
2022/12/12 04:49:11;;;;;;;20.38;12.40;;;;;;;;;;6182439;23;20009;-63
2022/12/12 04:51:42;;;;;;;21.13;11.65;;;;;;;;;;6182162;23;20461;-63
2022/12/12 04:54:11;;;;;;;20.45;11.60;;;;;;;;;;6181634;23;20013;-63
2022/12/12 04:56:38;;;;;;;22.02;11.90;;;;;;;;;;6181529;23;20372;-63
2022/12/12 04:59:05;;;;;;;19.35;11.02;;;;;;;;;;6181661;23;20009;-63
2022/12/12 05:01:40;;;;;;;23.17;10.73;;;;;;;;;;6233147;23;20008;-63
2022/12/12 05:04:13;;;;;;;21.88;9.93;;;;;;;;;;6245254;23;20342;-63
2022/12/12 05:06:44;;;;;;;17.55;10.18;;;;;;;;;;6245546;23;20435;-63
2022/12/12 05:09:12;;;;;;;34.05;20.08;;;;;;;;;;6245312;23;20404;-63
2022/12/12 05:11:38;;;;;;;32.97;20.35;;;;;;;;;;6245532;22;20085;-63
2022/12/12 05:14:07;;;;;;;25.88;12.35;;;;;;;;;;6245373;22;20386;-63
2022/12/12 05:16:37;;;;;;;20.00;11.75;;;;;;;;;;6245233;22;20473;-63
2022/12/12 05:19:04;;;;;;;21.80;11.27;;;;;;;;;;6245269;22;20011;-63
2022/12/12 05:21:30;;;;;;;22.30;11.80;;;;;;;;;;6245454;23;20000;-63
2022/12/12 05:23:56;;;;;;;26.00;12.43;;;;;;;;;;6245094;23;20300;-63
2022/12/12 05:26:24;;;;;;;26.45;12.98;;;;;;;;;;6245339;23;20000;-63
2022/12/12 05:28:50;;;;;;;25.58;13.35;;;;;;;;;;6245260;23;20326;-63
2022/12/12 05:31:17;;;;;;;26.95;13.88;;;;;;;;;;6244566;23;20097;-63
2022/12/12 05:33:43;;;;;;;24.98;13.15;;;;;;;;;;6245110;23;20008;-63
2022/12/12 05:36:10;;;;;;;21.80;12.13;;;;;;;;;;6245003;23;20087;-63
2022/12/12 05:38:36;;;;;;;19.95;11.60;;;;;;;;;;6245469;23;20423;-63
2022/12/12 05:41:03;;;;;;;19.13;10.52;;;;;;;;;;6245305;23;20317;-63
2022/12/12 05:43:29;;;;;;;18.17;11.05;;;;;;;;;;6245154;22;20008;-63
2022/12/12 05:45:55;;;;;;;16.85;9.60;;;;;;;;;;6244779;23;20501;-63
2022/12/12 05:48:22;;;;;;;18.73;10.93;;;;;;;;;;6244868;23;20084;-63
2022/12/12 05:50:48;;;;;;;19.48;11.65;;;;;;;;;;6245215;23;20300;-63
2022/12/12 05:53:14;;;;;;;22.77;10.90;;;;;;;;;;6244974;23;20004;-63
2022/12/12 05:55:40;;;;;;;17.02;10.77;;;;;;;;;;6245163;23;20385;-63
2022/12/12 05:58:06;;;;;;;21.38;11.57;;;;;;;;;;6245440;23;20011;-63
2022/12/12 06:00:33;;;;;;;21.05;11.65;;;;;;;;;;6244489;23;19996;-63
2022/12/12 06:02:59;;;;;;;19.05;10.52;;;;;;;;;;6245155;23;20004;-63
2022/12/12 06:05:25;;;;;;;16.52;9.48;;;;;;;;;;6246201;23;20046;-63
2022/12/12 06:07:51;;;;;;;18.80;10.68;;;;;;;;;;6246996;23;20082;-63
2022/12/12 06:10:17;;;;;;;18.52;9.75;;;;;;;;;;6246949;23;20004;-63
2022/12/12 06:12:43;;;;;;;14.85;10.15;;;;;;;;;;6246917;23;20012;-63
2022/12/12 06:15:10;;;;;;;22.67;9.75;;;;;;;;;;6246747;23;20345;-63
2022/12/12 06:17:36;;;;;;;17.27;10.10;;;;;;;;;;6246786;23;20008;-63
2022/12/12 06:20:03;;;;;;;17.13;10.63;;;;;;;;;;6247001;23;20442;-63
2022/12/12 06:22:29;;;;;;;16.88;9.38;;;;;;;;;;6246864;23;20004;-63
2022/12/12 06:24:56;;;;;;;20.17;11.52;;;;;;;;;;6247020;22;20024;-63
2022/12/12 06:27:22;;;;;;;17.50;9.52;;;;;;;;;;6246556;23;20342;-63
2022/12/12 06:29:48;;;;;;;18.10;9.95;;;;;;;;;;6246684;23;20032;-63
2022/12/12 06:32:14;;;;;;;15.57;8.27;;;;;;;;;;6246395;23;20004;-63
2022/12/12 06:34:40;;;;;;;12.63;7.93;;;;;;;;;;6245328;23;20015;-63
2022/12/12 06:37:07;;;;;;;15.45;8.57;;;;;;;;;;6246963;23;20143;-63
2022/12/12 06:39:33;;;;;;;18.75;8.73;;;;;;;;;;6246425;22;20011;-63
2022/12/12 06:42:00;;;;;;;15.45;8.60;;;;;;;;;;6246651;23;20004;-63
2022/12/12 06:44:26;;;;;;;13.27;8.25;;;;;;;;;;6246499;23;20083;-63
2022/12/12 06:46:52;;;;;;;17.35;8.18;;;;;;;;;;6246343;23;20525;-63
2022/12/12 06:49:18;;;;;;;18.63;9.68;;;;;;;;;;6246064;23;20004;-63
2022/12/12 06:51:44;;;;;;;20.55;11.02;;;;;;;;;;6246354;23;20057;-63
2022/12/12 06:54:13;;;;;;;17.65;9.63;;;;;;;;;;6245981;23;20450;-63
2022/12/12 06:56:40;;;;;;;13.52;8.15;;;;;;;;;;6245916;23;20446;-63
2022/12/12 06:59:06;;;;;;;15.63;9.18;;;;;;;;;;6246568;23;20067;-63
2022/12/12 07:01:32;;;;;;;18.98;9.82;;;;;;;;;;6244887;23;20008;-63
2022/12/12 07:03:58;;;;;;;20.65;11.02;;;;;;;;;;6246305;23;20007;-63
2022/12/12 07:06:24;;;;;;;19.95;12.30;;;;;;;;;;6245726;23;20019;-63
2022/12/12 07:08:51;;;;;;;20.20;13.18;;;;;;;;;;6245776;23;20004;-63
2022/12/12 07:11:19;;;;;;;17.70;11.10;;;;;;;;;;6245254;23;20350;-63
2022/12/12 07:13:45;;;;;;;19.23;10.63;;;;;;;;;;6245561;23;20439;-63
2022/12/12 07:16:12;;;;;;;16.45;9.52;;;;;;;;;;6245126;23;20015;-63
2022/12/12 07:18:38;;;;;;;18.20;9.73;;;;;;;;;;6245621;23;20034;-63
2022/12/12 07:21:05;;;;;;;15.60;9.50;;;;;;;;;;6246029;23;20058;-63
2022/12/12 07:23:31;;;;;;;12.27;8.10;;;;;;;;;;6245959;23;19996;-64
2022/12/12 07:25:57;;;;;;;18.35;8.43;;;;;;;;;;6245797;23;20004;-63
2022/12/12 07:28:24;;;;;;;17.85;8.40;;;;;;;;;;6245100;23;20004;-63
2022/12/12 07:30:50;;;;;;;15.27;8.63;;;;;;;;;;6245988;23;20023;-63
2022/12/12 07:33:16;;;;;;;16.95;9.35;;;;;;;;;;6244223;23;20439;-64
2022/12/12 07:35:44;;;;;;;19.27;9.43;;;;;;;;;;6245014;23;20061;-63
2022/12/12 07:38:10;;;;;;;13.57;9.00;;;;;;;;;;6245453;22;20004;-63
2022/12/12 07:40:36;;;;;;;15.98;8.82;;;;;;;;;;6245233;22;20054;-63
2022/12/12 07:43:03;;;;;;;23.92;9.48;;;;;;;;;;6245509;23;20000;-63
2022/12/12 07:45:29;;;;;;;13.73;8.82;;;;;;;;;;6245219;23;20004;-63
2022/12/12 07:47:55;;;;;;;15.68;9.88;;;;;;;;;;6245905;23;20414;-63
2022/12/12 07:50:22;;;;;;;14.95;8.55;;;;;;;;;;6244993;23;20001;-63
2022/12/12 07:52:48;;;;;;;14.88;9.30;;;;;;;;;;6244849;23;20004;-64
2022/12/12 07:55:14;;;;;;;14.35;7.97;;;;;;;;;;6244592;23;20005;-63
2022/12/12 07:57:40;;;;;;;16.10;10.43;;;;;;;;;;6245069;23;20004;-63
2022/12/12 08:00:07;;;;;;;16.55;10.27;;;;;;;;;;6245846;23;20004;-63
2022/12/12 08:02:38;;;;;;;17.15;10.52;;;;;;;;;;6245542;22;20000;-63
2022/12/12 08:05:04;;;;;;;15.05;8.52;;;;;;;;;;6245369;23;20000;-63
2022/12/12 08:07:30;;;;;;;17.48;8.40;;;;;;;;;;6245283;23;20012;-63
2022/12/12 08:09:56;;;;;;;18.30;8.93;;;;;;;;;;6245063;23;20004;-63
2022/12/12 08:12:22;;;;;;;22.38;9.95;;;;;;;;;;6245335;23;20000;-63
2022/12/12 08:14:48;;;;;;;23.30;12.60;;;;;;;;;;6245719;22;20008;-63
2022/12/12 08:17:14;;;;;;;25.92;12.05;;;;;;;;;;6242754;23;20008;-63
2022/12/12 08:19:41;;;;;;;26.73;11.93;;;;;;;;;;6243651;23;20000;-63
2022/12/12 08:22:07;;;;;;;24.00;12.85;;;;;;;;;;6243535;23;20008;-63
2022/12/12 08:24:34;;;;;;;19.75;11.85;;;;;;;;;;6244140;23;20004;-63
2022/12/12 08:27:00;;;;;;;22.90;11.85;;;;;;;;;;6243780;23;20004;-63
2022/12/12 08:29:26;;;;;;;23.17;12.18;;;;;;;;;;6243572;23;20010;-63
2022/12/12 08:31:52;;;;;;;26.10;13.20;;;;;;;;;;6243891;23;20016;-63
2022/12/12 08:34:18;;;;;;;29.20;14.73;;;;;;;;;;6244429;23;20004;-63
2022/12/12 08:36:44;;;;;;;23.77;13.13;;;;;;;;;;6244167;23;20000;-63
2022/12/12 08:39:12;;;;;;;22.52;12.23;;;;;;;;;;6244054;23;20015;-63
2022/12/12 08:41:40;;;;;;;25.10;14.38;;;;;;;;;;6244359;22;20346;-63
2022/12/12 08:44:07;;;;;;;25.52;12.43;;;;;;;;;;6243755;23;20004;-63
2022/12/12 08:46:33;;;;;;;19.38;11.77;;;;;;;;;;6244209;23;20007;-63
2022/12/12 08:48:59;;;;;;;15.57;10.43;;;;;;;;;;6243460;23;20011;-63
2022/12/12 08:51:25;;;;;;;17.52;10.48;;;;;;;;;;6244112;23;20039;-63
2022/12/12 08:53:52;;;;;;;17.25;10.60;;;;;;;;;;6243311;23;20058;-63
2022/12/12 08:56:19;;;;;;;18.83;10.25;;;;;;;;;;6244209;23;20008;-63
2022/12/12 08:58:45;;;;;;;18.02;10.52;;;;;;;;;;6243944;23;20004;-63
2022/12/12 09:01:21;;;;;;;21.73;11.35;;;;;;;;;;6243395;23;20019;-63
2022/12/12 09:03:48;;;;;;;17.27;10.32;;;;;;;;;;6244240;23;20046;-64
2022/12/12 09:06:15;;;;;;;18.80;10.25;;;;;;;;;;6243858;23;20473;-63
2022/12/12 09:08:41;;;;;;;17.25;10.60;;;;;;;;;;6243621;23;20032;-64
2022/12/12 09:11:07;;;;;;;21.63;11.25;;;;;;;;;;6243591;23;20011;-63
2022/12/12 09:13:34;;;;;;;19.33;10.82;;;;;;;;;;6244127;23;20019;-63
2022/12/12 09:16:00;;;;;;;17.33;10.93;;;;;;;;;;6243630;23;20012;-63
2022/12/12 09:18:26;;;;;;;15.05;9.95;;;;;;;;;;6244190;23;20332;-63
2022/12/12 09:20:54;;;;;;;16.95;9.25;;;;;;;;;;6244114;23;19996;-63
2022/12/12 09:23:20;;;;;;;18.95;10.07;;;;;;;;;;6243663;23;20419;-63
2022/12/12 09:25:46;;;;;;;23.95;9.70;;;;;;;;;;6244341;23;20004;-63
2022/12/12 09:28:14;;;;;;;19.63;11.68;;;;;;;;;;6243900;23;20034;-63
2022/12/12 09:30:41;;;;;;;19.90;10.32;;;;;;;;;;6244384;23;20318;-63
2022/12/12 09:33:07;;;;;;;24.15;12.55;;;;;;;;;;6243700;23;20008;-63
2022/12/12 09:35:33;;;;;;;20.75;10.95;;;;;;;;;;6243982;23;20445;-63
2022/12/12 09:37:59;;;;;;;19.30;11.32;;;;;;;;;;6243745;22;20834;-63
2022/12/12 09:40:35;;;;;;;22.40;11.98;;;;;;;;;;6244022;23;20079;-63
2022/12/12 09:43:01;;;;;;;20.83;11.55;;;;;;;;;;6243435;23;20004;-63
2022/12/12 09:45:28;;;;;;;22.83;11.95;;;;;;;;;;6243977;23;20377;-63
2022/12/12 09:47:56;;;;;;;24.58;11.45;;;;;;;;;;6244232;23;20035;-63
2022/12/12 09:50:38;;;;;;;20.95;11.13;;;;;;;;;;6242705;23;20000;-63
2022/12/12 09:53:11;;;;;;;23.40;11.30;;;;;;;;;;6242373;23;20087;-63
2022/12/12 09:55:49;;;;;;;21.52;11.82;;;;;;;;;;6244311;23;20303;-63
2022/12/12 09:58:25;;;;;;;18.77;11.32;;;;;;;;;;6243740;23;20008;-63
2022/12/12 10:01:11;;;;;;;21.38;11.18;;;;;;;;;;6242453;23;20031;-63
2022/12/12 10:03:38;;;;;;;22.77;11.50;;;;;;;;;;6223470;23;20012;-63
2022/12/12 10:06:08;;;;;;;19.40;10.68;;;;;;;;;;6243391;23;20004;-63
2022/12/12 10:08:42;;;;;;;27.17;11.60;;;;;;;;;;6243880;23;20089;-63
2022/12/12 10:11:48;;;;;;;25.02;10.85;;;;;;;;;;6243656;23;20008;-63
2022/12/12 10:13:58;;;;;;;22.52;11.50;;;;;;;;;;6243774;23;20020;-63
2022/12/12 10:16:25;;;;;;;22.15;11.18;;;;;;;;;;6243841;23;20322;-63
2022/12/12 10:18:52;;;;;;;23.25;11.77;;;;;;;;;;6243822;23;20011;-63
2022/12/12 10:21:21;;;;;;;22.73;12.45;;;;;;;;;;6243067;22;20019;-63
2022/12/12 10:23:54;;;;;;;24.15;12.20;;;;;;;;;;6244107;23;20009;-63
2022/12/12 10:26:22;;;;;;;22.98;13.00;;;;;;;;;;6243648;23;20442;-63
2022/12/12 10:28:50;;;;;;;24.15;12.23;;;;;;;;;;6244096;23;20011;-63
2022/12/12 10:31:28;;;;;;;24.05;13.02;;;;;;;;;;6243544;22;20062;-63
2022/12/12 10:33:58;;;;;;;23.52;12.95;;;;;;;;;;6244031;22;20113;-63
2022/12/12 10:36:43;;;;;;;22.40;13.07;;;;;;;;;;6243502;23;20008;-63
2022/12/12 10:39:21;;;;;;;23.35;13.65;;;;;;;;;;6243431;23;20285;-63
2022/12/12 10:42:03;;;;;;;25.33;13.27;;;;;;;;;;6244031;23;20007;-63
2022/12/12 10:44:47;;;;;;;23.95;13.77;;;;;;;;;;6243802;23;20007;-63
2022/12/12 10:47:13;;;;;;;21.50;13.27;;;;;;;;;;6243640;23;20012;-63
2022/12/12 10:49:41;;;;;;;22.77;12.75;;;;;;;;;;6243227;22;20015;-63
2022/12/12 10:52:16;;;;;;;23.77;12.32;;;;;;;;;;6245369;23;20393;-63
2022/12/12 10:54:47;;;;;;;23.45;13.07;;;;;;;;;;6245329;23;20012;-63
2022/12/12 10:57:39;;;;;;;21.02;12.23;;;;;;;;;;6244832;23;20019;-63
2022/12/12 11:00:16;;;;;;;25.38;12.60;;;;;;;;;;6240358;22;20322;-63
2022/12/12 11:02:43;;;;;;;25.50;13.65;;;;;;;;;;6245335;23;20034;-63
2022/12/12 11:05:18;;;;;;;23.88;14.98;;;;;;;;;;6244944;23;19996;-63
2022/12/12 11:07:46;;;;;;;26.88;15.85;;;;;;;;;;6245759;23;20012;-63
2022/12/12 11:10:23;;;;;;;26.60;15.05;;;;;;;;;;6245012;23;20004;-63
2022/12/12 11:12:56;;;;;;;29.70;14.60;;;;;;;;;;6245349;23;20315;-63
2022/12/12 11:15:27;;;;;;;40.20;18.92;;;;;;;;;;6244955;23;20004;-63
2022/12/12 11:17:56;;;;;;;41.42;21.65;;;;;;;;;;6245131;23;20434;-63
2022/12/12 11:20:22;;;;;;;36.65;18.60;;;;;;;;;;6245233;22;20518;-63
2022/12/12 11:22:50;;;;;;;29.52;16.63;;;;;;;;;;6245464;23;20004;-63
2022/12/12 11:25:24;;;;;;;31.30;15.80;;;;;;;;;;6244952;23;20007;-63
2022/12/12 11:27:51;;;;;;;19.35;12.63;;;;;;;;;;6245115;23;20015;-63
2022/12/12 11:30:28;;;;;;;26.55;15.55;;;;;;;;;;6245262;23;20047;-63
2022/12/12 11:32:55;;;;;;;26.08;15.45;;;;;;;;;;6244704;23;20008;-63
2022/12/12 11:35:23;;;;;;;26.17;14.82;;;;;;;;;;6245264;22;20011;-63
2022/12/12 11:37:52;;;;;;;24.13;14.95;;;;;;;;;;6245089;23;20012;-63
2022/12/12 11:40:23;;;;;;;21.35;13.60;;;;;;;;;;6245023;23;20461;-63
2022/12/12 11:42:50;;;;;;;26.38;13.50;;;;;;;;;;6245095;23;20007;-63
2022/12/12 11:45:16;;;;;;;23.13;13.35;;;;;;;;;;6244839;23;20027;-63
2022/12/12 11:47:43;;;;;;;26.17;13.60;;;;;;;;;;6244488;23;20031;-63
2022/12/12 11:50:22;;;;;;;22.42;14.32;;;;;;;;;;6245163;23;20008;-63
2022/12/12 11:52:50;;;;;;;30.10;16.77;;;;;;;;;;6244733;23;20472;-63
2022/12/12 11:55:19;;;;;;;25.55;15.60;;;;;;;;;;6244816;23;20026;-63
2022/12/12 11:58:06;;;;;;;28.77;15.95;;;;;;;;;;6244756;23;20039;-63
2022/12/12 12:00:45;;;;;;;27.13;14.20;;;;;;;;;;6244376;23;20078;-63
2022/12/12 12:03:20;;;;;;;23.45;12.60;;;;;;;;;;6244513;23;20085;-63
2022/12/12 12:05:46;;;;;;;19.70;12.18;;;;;;;;;;6245457;23;20004;-63
2022/12/12 12:08:13;;;;;;;19.52;11.07;;;;;;;;;;6245207;23;20004;-63
2022/12/12 12:10:39;;;;;;;20.25;10.57;;;;;;;;;;6244164;23;20430;-63
2022/12/12 12:13:08;;;;;;;18.30;10.48;;;;;;;;;;6244742;23;20492;-63
2022/12/12 12:15:39;;;;;;;19.77;10.30;;;;;;;;;;6243764;23;20000;-63
2022/12/12 12:18:05;;;;;;;17.52;10.23;;;;;;;;;;6244699;23;20343;-63
2022/12/12 12:20:37;;;;;;;14.00;8.85;;;;;;;;;;6244810;23;19996;-63
2022/12/12 12:23:22;;;;;;;16.70;9.30;;;;;;;;;;6244277;23;20000;-63
2022/12/12 12:25:48;;;;;;;16.52;8.85;;;;;;;;;;6243651;23;20223;-63
2022/12/12 12:28:26;;;;;;;13.05;8.48;;;;;;;;;;6244477;23;20001;-64
2022/12/12 12:31:12;;;;;;;17.42;8.50;;;;;;;;;;6244177;23;20087;-63
2022/12/12 12:33:57;;;;;;;13.38;8.18;;;;;;;;;;6244690;23;20001;-63
2022/12/12 12:36:25;;;;;;;16.75;8.63;;;;;;;;;;6244137;23;20004;-63
2022/12/12 12:38:53;;;;;;;15.48;9.13;;;;;;;;;;6243695;22;20099;-63
2022/12/12 12:41:37;;;;;;;18.15;9.57;;;;;;;;;;6243869;23;20057;-63
2022/12/12 12:44:19;;;;;;;18.77;9.95;;;;;;;;;;6244385;23;20005;-63
2022/12/12 12:46:53;;;;;;;16.13;9.23;;;;;;;;;;6243119;23;20004;-64
2022/12/12 12:49:25;;;;;;;15.70;9.25;;;;;;;;;;6244255;22;20465;-63
2022/12/12 12:52:04;;;;;;;14.30;8.38;;;;;;;;;;6244388;23;20008;-63
2022/12/12 12:54:34;;;;;;;14.15;8.32;;;;;;;;;;6244700;23;20012;-63
2022/12/12 12:57:06;;;;;;;15.60;9.30;;;;;;;;;;6243833;23;20051;-63
2022/12/12 12:59:34;;;;;;;22.30;8.63;;;;;;;;;;6243548;23;20489;-63
2022/12/12 13:02:02;;;;;;;15.23;9.15;;;;;;;;;;6243567;23;20004;-63
2022/12/12 13:04:31;;;;;;;16.10;8.88;;;;;;;;;;6242707;23;20004;-63
2022/12/12 13:07:06;;;;;;;17.70;9.35;;;;;;;;;;6243104;23;20007;-63
2022/12/12 13:09:51;;;;;;;16.55;10.48;;;;;;;;;;6242921;22;20074;-63
2022/12/12 13:12:17;;;;;;;14.13;8.77;;;;;;;;;;6241042;23;20004;-63
2022/12/12 13:14:46;;;;;;;17.58;8.57;;;;;;;;;;6242461;23;20012;-64
2022/12/12 13:17:23;;;;;;;18.63;9.65;;;;;;;;;;6241645;23;20016;-64
2022/12/12 13:19:52;;;;;;;15.80;9.10;;;;;;;;;;6242907;23;20083;-64
2022/12/12 13:22:18;;;;;;;16.38;9.77;;;;;;;;;;6243494;22;20011;-63
2022/12/12 13:24:53;;;;;;;19.35;12.55;;;;;;;;;;6243091;23;20010;-63
2022/12/12 13:27:26;;;;;;;20.05;11.68;;;;;;;;;;6243275;23;20078;-63
2022/12/12 13:29:54;;;;;;;20.60;11.35;;;;;;;;;;6242356;23;20028;-63
2022/12/12 13:32:20;;;;;;;18.42;11.05;;;;;;;;;;6243523;23;20692;-63
2022/12/12 13:34:50;;;;;;;18.83;10.88;;;;;;;;;;6243011;23;20012;-63
2022/12/12 13:37:18;;;;;;;16.08;10.40;;;;;;;;;;6242609;23;20005;-63
2022/12/12 13:39:44;;;;;;;18.52;10.55;;;;;;;;;;6242728;23;20012;-63
2022/12/12 13:42:11;;;;;;;14.43;9.70;;;;;;;;;;6241761;23;20415;-63
2022/12/12 13:44:45;;;;;;;15.60;9.95;;;;;;;;;;6242827;23;20004;-63
2022/12/12 13:47:15;;;;;;;23.77;12.38;;;;;;;;;;6242355;23;20102;-64
2022/12/12 13:50:00;;;;;;;23.98;14.50;;;;;;;;;;6242879;23;20079;-64
2022/12/12 13:52:26;;;;;;;23.73;14.20;;;;;;;;;;6243022;23;20465;-63
2022/12/12 13:55:12;;;;;;;18.48;12.27;;;;;;;;;;6242795;23;20058;-64
2022/12/12 13:58:01;;;;;;;16.77;11.52;;;;;;;;;;6242478;23;20012;-63
2022/12/12 14:00:36;;;;;;;19.60;11.45;;;;;;;;;;6243083;22;20055;-63
2022/12/12 14:03:11;;;;;;;16.23;10.30;;;;;;;;;;6242630;23;20075;-63
2022/12/12 14:05:41;;;;;;;16.27;10.50;;;;;;;;;;6242680;22;20450;-63
2022/12/12 14:08:10;;;;;;;17.90;10.00;;;;;;;;;;6242686;23;20058;-63
2022/12/12 14:10:42;;;;;;;16.33;9.05;;;;;;;;;;6242309;23;20008;-63
2022/12/12 14:13:21;;;;;;;15.90;9.13;;;;;;;;;;6241799;22;20362;-63
2022/12/12 14:15:48;;;;;;;13.68;8.48;;;;;;;;;;6242218;23;20083;-63
2022/12/12 14:18:22;;;;;;;18.48;8.52;;;;;;;;;;6241931;23;20007;-63
2022/12/12 14:20:55;;;;;;;13.10;8.50;;;;;;;;;;6242163;23;20005;-63
2022/12/12 14:23:21;;;;;;;;;;;;;;;;;;6242580;22;20527;-63
2022/12/12 14:25:47;;;;;;;13.18;8.48;;;;;;;;;;6243230;22;19903;-63
2022/12/12 14:28:16;;;;;;;14.23;9.25;;;;;;;;;;6244152;23;20008;-63
2022/12/12 14:30:44;;;;;;;16.05;10.07;;;;;;;;;;6244445;23;20007;-63
2022/12/12 14:33:16;;;;;;;21.55;11.60;;;;;;;;;;6244189;23;20214;-63
2022/12/12 14:36:01;;;;;;;22.00;11.10;;;;;;;;;;6243701;23;20050;-63
2022/12/12 14:38:36;;;;;;;21.88;12.00;;;;;;;;;;6244957;23;20358;-63
2022/12/12 14:41:11;;;;;;;25.23;12.55;;;;;;;;;;6244906;23;20006;-63
2022/12/12 14:43:42;;;;;;;20.77;11.45;;;;;;;;;;6245164;23;20004;-63
2022/12/12 14:46:15;;;;;;;25.05;13.18;;;;;;;;;;6243842;23;20004;-63